sensor_id;sensor_type;location;lat;lon;timestamp;P1;durP1;ratioP1;P2;durP2;ratioP2
64387;SDS011;50709;52.648;4.764;2022-11-04T00:00:12;4.05;;;1.60;;
64387;SDS011;50709;52.648;4.764;2022-11-04T00:02:38;3.10;;;1.20;;
64387;SDS011;50709;52.648;4.764;2022-11-04T00:05:04;2.40;;;1.15;;
64387;SDS011;50709;52.648;4.764;2022-11-04T00:07:29;5.38;;;1.92;;
64387;SDS011;50709;52.648;4.764;2022-11-04T00:10:13;4.15;;;1.20;;
64387;SDS011;50709;52.648;4.764;2022-11-04T00:12:38;1.70;;;1.13;;
64387;SDS011;50709;52.648;4.764;2022-11-04T00:15:04;1.98;;;1.25;;
64387;SDS011;50709;52.648;4.764;2022-11-04T00:17:48;5.60;;;1.30;;
64387;SDS011;50709;52.648;4.764;2022-11-04T00:20:13;2.72;;;1.48;;
64387;SDS011;50709;52.648;4.764;2022-11-04T00:22:57;3.58;;;1.40;;
64387;SDS011;50709;52.648;4.764;2022-11-04T00:25:41;2.25;;;1.08;;
64387;SDS011;50709;52.648;4.764;2022-11-04T00:28:25;2.45;;;1.45;;
64387;SDS011;50709;52.648;4.764;2022-11-04T00:31:09;2.55;;;1.40;;
64387;SDS011;50709;52.648;4.764;2022-11-04T00:33:54;3.08;;;1.15;;
64387;SDS011;50709;52.648;4.764;2022-11-04T00:36:22;1.75;;;1.17;;
64387;SDS011;50709;52.648;4.764;2022-11-04T00:45:31;1.30;;;1.17;;
64387;SDS011;50709;52.648;4.764;2022-11-04T00:47:57;2.15;;;1.08;;
64387;SDS011;50709;52.648;4.764;2022-11-04T00:50:22;3.92;;;1.42;;
64387;SDS011;50709;52.648;4.764;2022-11-04T00:52:48;2.10;;;1.20;;
64387;SDS011;50709;52.648;4.764;2022-11-04T00:55:13;2.25;;;1.10;;
64387;SDS011;50709;52.648;4.764;2022-11-04T00:57:38;1.65;;;1.25;;
64387;SDS011;50709;52.648;4.764;2022-11-04T01:00:04;4.88;;;2.08;;
64387;SDS011;50709;52.648;4.764;2022-11-04T01:02:29;1.80;;;1.15;;
64387;SDS011;50709;52.648;4.764;2022-11-04T01:04:55;2.58;;;0.98;;
64387;SDS011;50709;52.648;4.764;2022-11-04T01:07:20;2.40;;;1.20;;
64387;SDS011;50709;52.648;4.764;2022-11-04T01:09:47;3.03;;;1.38;;
64387;SDS011;50709;52.648;4.764;2022-11-04T01:12:13;2.60;;;1.42;;
64387;SDS011;50709;52.648;4.764;2022-11-04T01:14:39;2.70;;;1.13;;
64387;SDS011;50709;52.648;4.764;2022-11-04T01:17:04;3.28;;;1.45;;
64387;SDS011;50709;52.648;4.764;2022-11-04T01:19:30;2.55;;;1.20;;
64387;SDS011;50709;52.648;4.764;2022-11-04T01:21:55;3.58;;;1.30;;
64387;SDS011;50709;52.648;4.764;2022-11-04T01:24:20;3.22;;;1.42;;
64387;SDS011;50709;52.648;4.764;2022-11-04T01:26:46;4.03;;;1.47;;
64387;SDS011;50709;52.648;4.764;2022-11-04T01:29:11;1.48;;;1.20;;
64387;SDS011;50709;52.648;4.764;2022-11-04T01:31:36;4.18;;;1.30;;
64387;SDS011;50709;52.648;4.764;2022-11-04T01:34:02;3.22;;;1.58;;
64387;SDS011;50709;52.648;4.764;2022-11-04T01:36:27;5.25;;;1.50;;
64387;SDS011;50709;52.648;4.764;2022-11-04T01:38:55;2.13;;;1.30;;
64387;SDS011;50709;52.648;4.764;2022-11-04T01:43:52;5.18;;;1.58;;
64387;SDS011;50709;52.648;4.764;2022-11-04T01:46:24;2.47;;;1.10;;
64387;SDS011;50709;52.648;4.764;2022-11-04T01:48:51;2.70;;;1.30;;
64387;SDS011;50709;52.648;4.764;2022-11-04T01:51:17;1.90;;;1.23;;
64387;SDS011;50709;52.648;4.764;2022-11-04T01:53:44;2.05;;;1.33;;
64387;SDS011;50709;52.648;4.764;2022-11-04T01:56:11;3.08;;;1.45;;
64387;SDS011;50709;52.648;4.764;2022-11-04T01:58:38;3.40;;;1.40;;
64387;SDS011;50709;52.648;4.764;2022-11-04T02:01:08;3.95;;;1.50;;
64387;SDS011;50709;52.648;4.764;2022-11-04T02:03:37;2.13;;;1.50;;
64387;SDS011;50709;52.648;4.764;2022-11-04T02:06:04;3.50;;;1.60;;
64387;SDS011;50709;52.648;4.764;2022-11-04T02:08:30;3.63;;;1.58;;
64387;SDS011;50709;52.648;4.764;2022-11-04T02:11:00;4.20;;;1.25;;
64387;SDS011;50709;52.648;4.764;2022-11-04T02:13:27;2.88;;;1.50;;
64387;SDS011;50709;52.648;4.764;2022-11-04T02:18:56;2.35;;;1.42;;
64387;SDS011;50709;52.648;4.764;2022-11-04T02:27:43;3.03;;;1.27;;
64387;SDS011;50709;52.648;4.764;2022-11-04T02:30:23;2.58;;;1.35;;
64387;SDS011;50709;52.648;4.764;2022-11-04T02:32:55;3.17;;;1.60;;
64387;SDS011;50709;52.648;4.764;2022-11-04T02:38:37;3.63;;;1.35;;
64387;SDS011;50709;52.648;4.764;2022-11-04T02:41:18;4.03;;;1.17;;
64387;SDS011;50709;52.648;4.764;2022-11-04T02:44:07;2.45;;;1.27;;
64387;SDS011;50709;52.648;4.764;2022-11-04T02:49:18;2.75;;;1.23;;
64387;SDS011;50709;52.648;4.764;2022-11-04T02:51:50;2.20;;;1.40;;
64387;SDS011;50709;52.648;4.764;2022-11-04T02:57:00;3.00;;;1.40;;
64387;SDS011;50709;52.648;4.764;2022-11-04T02:59:31;2.08;;;1.05;;
64387;SDS011;50709;52.648;4.764;2022-11-04T03:02:02;2.45;;;1.20;;
64387;SDS011;50709;52.648;4.764;2022-11-04T03:04:34;2.83;;;1.35;;
64387;SDS011;50709;52.648;4.764;2022-11-04T03:07:04;3.70;;;1.45;;
64387;SDS011;50709;52.648;4.764;2022-11-04T03:09:34;2.08;;;1.10;;
64387;SDS011;50709;52.648;4.764;2022-11-04T03:12:04;4.47;;;1.27;;
64387;SDS011;50709;52.648;4.764;2022-11-04T03:14:34;1.20;;;0.93;;
64387;SDS011;50709;52.648;4.764;2022-11-04T03:17:04;4.60;;;1.48;;
64387;SDS011;50709;52.648;4.764;2022-11-04T03:19:45;1.85;;;1.15;;
64387;SDS011;50709;52.648;4.764;2022-11-04T03:22:18;1.88;;;1.25;;
64387;SDS011;50709;52.648;4.764;2022-11-04T03:24:46;3.42;;;1.77;;
64387;SDS011;50709;52.648;4.764;2022-11-04T03:27:25;1.88;;;1.25;;
64387;SDS011;50709;52.648;4.764;2022-11-04T03:32:32;4.28;;;1.35;;
64387;SDS011;50709;52.648;4.764;2022-11-04T03:35:00;1.48;;;1.10;;
64387;SDS011;50709;52.648;4.764;2022-11-04T03:37:26;1.40;;;1.10;;
64387;SDS011;50709;52.648;4.764;2022-11-04T03:39:51;1.50;;;1.15;;
64387;SDS011;50709;52.648;4.764;2022-11-04T03:42:16;1.15;;;0.98;;
64387;SDS011;50709;52.648;4.764;2022-11-04T03:44:51;3.15;;;1.30;;
64387;SDS011;50709;52.648;4.764;2022-11-04T03:47:20;1.92;;;1.27;;
64387;SDS011;50709;52.648;4.764;2022-11-04T03:49:48;1.27;;;1.10;;
64387;SDS011;50709;52.648;4.764;2022-11-04T03:52:16;1.55;;;1.10;;
64387;SDS011;50709;52.648;4.764;2022-11-04T03:54:43;2.33;;;1.30;;
64387;SDS011;50709;52.648;4.764;2022-11-04T03:57:22;2.35;;;1.38;;
64387;SDS011;50709;52.648;4.764;2022-11-04T04:00:10;1.92;;;1.13;;
64387;SDS011;50709;52.648;4.764;2022-11-04T04:05:11;2.38;;;1.10;;
64387;SDS011;50709;52.648;4.764;2022-11-04T04:07:44;2.00;;;1.00;;
64387;SDS011;50709;52.648;4.764;2022-11-04T04:10:15;2.88;;;1.10;;
64387;SDS011;50709;52.648;4.764;2022-11-04T04:13:06;2.60;;;1.20;;
64387;SDS011;50709;52.648;4.764;2022-11-04T04:15:58;2.38;;;1.33;;
64387;SDS011;50709;52.648;4.764;2022-11-04T04:18:36;1.13;;;0.90;;
64387;SDS011;50709;52.648;4.764;2022-11-04T04:21:07;1.95;;;1.05;;
64387;SDS011;50709;52.648;4.764;2022-11-04T04:23:36;3.58;;;1.30;;
64387;SDS011;50709;52.648;4.764;2022-11-04T04:26:22;1.15;;;0.70;;
64387;SDS011;50709;52.648;4.764;2022-11-04T04:29:08;1.25;;;0.85;;
64387;SDS011;50709;52.648;4.764;2022-11-04T04:31:35;1.23;;;1.08;;
64387;SDS011;50709;52.648;4.764;2022-11-04T04:34:15;1.92;;;1.08;;
64387;SDS011;50709;52.648;4.764;2022-11-04T04:36:45;0.95;;;0.85;;
64387;SDS011;50709;52.648;4.764;2022-11-04T04:39:16;2.78;;;1.10;;
64387;SDS011;50709;52.648;4.764;2022-11-04T04:42:03;1.30;;;1.10;;
64387;SDS011;50709;52.648;4.764;2022-11-04T04:44:47;2.25;;;1.17;;
64387;SDS011;50709;52.648;4.764;2022-11-04T04:47:32;2.33;;;1.10;;
64387;SDS011;50709;52.648;4.764;2022-11-04T04:50:09;2.75;;;1.20;;
64387;SDS011;50709;52.648;4.764;2022-11-04T04:52:38;2.75;;;1.60;;
64387;SDS011;50709;52.648;4.764;2022-11-04T04:55:06;2.63;;;1.30;;
64387;SDS011;50709;52.648;4.764;2022-11-04T04:57:32;2.08;;;1.20;;
64387;SDS011;50709;52.648;4.764;2022-11-04T04:59:58;2.38;;;1.10;;
64387;SDS011;50709;52.648;4.764;2022-11-04T05:02:23;2.42;;;1.00;;
64387;SDS011;50709;52.648;4.764;2022-11-04T05:04:49;2.33;;;1.20;;
64387;SDS011;50709;52.648;4.764;2022-11-04T05:07:14;2.42;;;1.25;;
64387;SDS011;50709;52.648;4.764;2022-11-04T05:09:39;2.17;;;1.33;;
64387;SDS011;50709;52.648;4.764;2022-11-04T05:12:05;1.10;;;0.93;;
64387;SDS011;50709;52.648;4.764;2022-11-04T05:14:30;1.20;;;1.08;;
64387;SDS011;50709;52.648;4.764;2022-11-04T05:16:55;5.07;;;1.60;;
64387;SDS011;50709;52.648;4.764;2022-11-04T05:19:21;1.85;;;1.20;;
64387;SDS011;50709;52.648;4.764;2022-11-04T05:21:49;2.25;;;1.55;;
64387;SDS011;50709;52.648;4.764;2022-11-04T05:24:14;1.73;;;1.20;;
64387;SDS011;50709;52.648;4.764;2022-11-04T05:26:40;2.13;;;1.13;;
64387;SDS011;50709;52.648;4.764;2022-11-04T05:29:05;2.05;;;1.10;;
64387;SDS011;50709;52.648;4.764;2022-11-04T05:31:31;3.00;;;1.50;;
64387;SDS011;50709;52.648;4.764;2022-11-04T05:33:56;1.85;;;1.23;;
64387;SDS011;50709;52.648;4.764;2022-11-04T05:36:23;2.83;;;1.30;;
64387;SDS011;50709;52.648;4.764;2022-11-04T05:38:50;2.13;;;1.10;;
64387;SDS011;50709;52.648;4.764;2022-11-04T05:41:16;1.30;;;1.13;;
64387;SDS011;50709;52.648;4.764;2022-11-04T05:46:18;1.92;;;1.13;;
64387;SDS011;50709;52.648;4.764;2022-11-04T05:48:43;3.03;;;1.60;;
64387;SDS011;50709;52.648;4.764;2022-11-04T05:51:19;1.98;;;1.33;;
64387;SDS011;50709;52.648;4.764;2022-11-04T05:53:46;3.85;;;1.60;;
64387;SDS011;50709;52.648;4.764;2022-11-04T05:56:11;3.22;;;1.60;;
64387;SDS011;50709;52.648;4.764;2022-11-04T05:58:37;1.58;;;1.15;;
64387;SDS011;50709;52.648;4.764;2022-11-04T06:04:00;2.78;;;1.42;;
64387;SDS011;50709;52.648;4.764;2022-11-04T06:06:27;3.47;;;1.70;;
64387;SDS011;50709;52.648;4.764;2022-11-04T06:08:54;1.83;;;1.25;;
64387;SDS011;50709;52.648;4.764;2022-11-04T06:11:21;3.20;;;1.58;;
64387;SDS011;50709;52.648;4.764;2022-11-04T06:13:48;2.80;;;1.50;;
64387;SDS011;50709;52.648;4.764;2022-11-04T06:16:14;2.17;;;1.40;;
64387;SDS011;50709;52.648;4.764;2022-11-04T06:18:39;2.50;;;1.67;;
64387;SDS011;50709;52.648;4.764;2022-11-04T06:21:26;3.05;;;1.63;;
64387;SDS011;50709;52.648;4.764;2022-11-04T06:23:55;1.48;;;1.25;;
64387;SDS011;50709;52.648;4.764;2022-11-04T06:26:21;4.90;;;1.77;;
64387;SDS011;50709;52.648;4.764;2022-11-04T06:28:48;3.33;;;1.70;;
64387;SDS011;50709;52.648;4.764;2022-11-04T06:31:13;2.67;;;1.67;;
64387;SDS011;50709;52.648;4.764;2022-11-04T06:33:39;2.33;;;1.52;;
64387;SDS011;50709;52.648;4.764;2022-11-04T06:36:05;2.45;;;1.40;;
64387;SDS011;50709;52.648;4.764;2022-11-04T06:38:32;3.75;;;1.85;;
64387;SDS011;50709;52.648;4.764;2022-11-04T06:40:59;1.88;;;1.23;;
64387;SDS011;50709;52.648;4.764;2022-11-04T06:43:25;3.40;;;1.60;;
64387;SDS011;50709;52.648;4.764;2022-11-04T06:48:19;3.30;;;1.85;;
64387;SDS011;50709;52.648;4.764;2022-11-04T06:50:44;2.67;;;1.77;;
64387;SDS011;50709;52.648;4.764;2022-11-04T06:53:09;2.10;;;1.30;;
64387;SDS011;50709;52.648;4.764;2022-11-04T06:55:35;2.80;;;1.50;;
64387;SDS011;50709;52.648;4.764;2022-11-04T06:58:00;7.15;;;2.53;;
64387;SDS011;50709;52.648;4.764;2022-11-04T07:00:25;5.38;;;2.47;;
64387;SDS011;50709;52.648;4.764;2022-11-04T07:02:51;6.47;;;2.70;;
64387;SDS011;50709;52.648;4.764;2022-11-04T07:05:16;5.88;;;2.35;;
64387;SDS011;50709;52.648;4.764;2022-11-04T07:07:41;6.95;;;2.35;;
64387;SDS011;50709;52.648;4.764;2022-11-04T07:10:07;9.30;;;3.00;;
64387;SDS011;50709;52.648;4.764;2022-11-04T07:12:32;7.68;;;2.55;;
64387;SDS011;50709;52.648;4.764;2022-11-04T07:14:58;5.75;;;2.63;;
64387;SDS011;50709;52.648;4.764;2022-11-04T07:17:23;7.88;;;2.67;;
64387;SDS011;50709;52.648;4.764;2022-11-04T07:19:48;7.05;;;2.97;;
64387;SDS011;50709;52.648;4.764;2022-11-04T07:22:14;6.03;;;2.50;;
64387;SDS011;50709;52.648;4.764;2022-11-04T07:24:39;6.20;;;2.40;;
64387;SDS011;50709;52.648;4.764;2022-11-04T07:27:05;6.63;;;2.50;;
64387;SDS011;50709;52.648;4.764;2022-11-04T07:29:31;6.80;;;2.65;;
64387;SDS011;50709;52.648;4.764;2022-11-04T07:31:57;6.20;;;2.05;;
64387;SDS011;50709;52.648;4.764;2022-11-04T07:34:22;5.65;;;2.50;;
64387;SDS011;50709;52.648;4.764;2022-11-04T07:36:48;4.75;;;2.40;;
64387;SDS011;50709;52.648;4.764;2022-11-04T07:39:13;8.30;;;2.47;;
64387;SDS011;50709;52.648;4.764;2022-11-04T07:41:38;6.63;;;2.40;;
64387;SDS011;50709;52.648;4.764;2022-11-04T07:44:04;5.10;;;2.30;;
64387;SDS011;50709;52.648;4.764;2022-11-04T07:46:30;4.95;;;2.42;;
64387;SDS011;50709;52.648;4.764;2022-11-04T07:48:56;6.15;;;2.60;;
64387;SDS011;50709;52.648;4.764;2022-11-04T07:51:23;7.13;;;2.65;;
64387;SDS011;50709;52.648;4.764;2022-11-04T07:53:49;4.47;;;2.72;;
64387;SDS011;50709;52.648;4.764;2022-11-04T07:56:14;7.25;;;2.50;;
64387;SDS011;50709;52.648;4.764;2022-11-04T07:58:40;7.25;;;3.05;;
64387;SDS011;50709;52.648;4.764;2022-11-04T08:01:07;4.22;;;2.50;;
64387;SDS011;50709;52.648;4.764;2022-11-04T08:03:34;5.25;;;2.50;;
64387;SDS011;50709;52.648;4.764;2022-11-04T08:06:01;4.80;;;3.00;;
64387;SDS011;50709;52.648;4.764;2022-11-04T08:08:28;4.22;;;2.45;;
64387;SDS011;50709;52.648;4.764;2022-11-04T08:10:58;7.28;;;3.03;;
64387;SDS011;50709;52.648;4.764;2022-11-04T08:13:41;4.10;;;2.45;;
64387;SDS011;50709;52.648;4.764;2022-11-04T08:16:07;6.40;;;2.80;;
64387;SDS011;50709;52.648;4.764;2022-11-04T08:18:37;6.72;;;2.72;;
64387;SDS011;50709;52.648;4.764;2022-11-04T08:21:03;5.18;;;3.03;;
64387;SDS011;50709;52.648;4.764;2022-11-04T08:23:29;6.10;;;2.75;;
64387;SDS011;50709;52.648;4.764;2022-11-04T08:25:55;6.40;;;3.00;;
64387;SDS011;50709;52.648;4.764;2022-11-04T08:28:20;7.85;;;2.97;;
64387;SDS011;50709;52.648;4.764;2022-11-04T08:30:52;6.05;;;2.78;;
64387;SDS011;50709;52.648;4.764;2022-11-04T08:33:23;6.65;;;2.97;;
64387;SDS011;50709;52.648;4.764;2022-11-04T08:35:50;5.47;;;2.67;;
64387;SDS011;50709;52.648;4.764;2022-11-04T08:38:16;6.50;;;2.95;;
64387;SDS011;50709;52.648;4.764;2022-11-04T08:40:41;5.88;;;2.53;;
64387;SDS011;50709;52.648;4.764;2022-11-04T08:43:07;5.45;;;2.42;;
64387;SDS011;50709;52.648;4.764;2022-11-04T08:45:32;4.10;;;2.45;;
64387;SDS011;50709;52.648;4.764;2022-11-04T08:47:58;5.43;;;2.88;;
64387;SDS011;50709;52.648;4.764;2022-11-04T08:50:23;5.10;;;3.03;;
64387;SDS011;50709;52.648;4.764;2022-11-04T08:52:52;5.97;;;3.20;;
64387;SDS011;50709;52.648;4.764;2022-11-04T08:55:17;5.22;;;2.35;;
64387;SDS011;50709;52.648;4.764;2022-11-04T08:57:43;5.50;;;2.75;;
64387;SDS011;50709;52.648;4.764;2022-11-04T09:00:08;6.75;;;3.00;;
64387;SDS011;50709;52.648;4.764;2022-11-04T09:02:34;6.18;;;2.70;;
64387;SDS011;50709;52.648;4.764;2022-11-04T09:04:59;4.68;;;2.58;;
64387;SDS011;50709;52.648;4.764;2022-11-04T09:07:25;5.63;;;2.60;;
64387;SDS011;50709;52.648;4.764;2022-11-04T09:09:51;5.65;;;2.60;;
64387;SDS011;50709;52.648;4.764;2022-11-04T09:12:16;5.68;;;2.60;;
64387;SDS011;50709;52.648;4.764;2022-11-04T09:14:41;5.00;;;2.60;;
64387;SDS011;50709;52.648;4.764;2022-11-04T09:17:07;6.93;;;2.67;;
64387;SDS011;50709;52.648;4.764;2022-11-04T09:19:32;6.00;;;2.55;;
64387;SDS011;50709;52.648;4.764;2022-11-04T09:21:57;6.95;;;2.65;;
64387;SDS011;50709;52.648;4.764;2022-11-04T09:24:23;5.00;;;2.50;;
64387;SDS011;50709;52.648;4.764;2022-11-04T09:26:48;6.18;;;2.88;;
64387;SDS011;50709;52.648;4.764;2022-11-04T09:29:13;3.92;;;2.42;;
64387;SDS011;50709;52.648;4.764;2022-11-04T09:31:38;4.47;;;3.00;;
64387;SDS011;50709;52.648;4.764;2022-11-04T09:34:04;5.15;;;2.80;;
64387;SDS011;50709;52.648;4.764;2022-11-04T09:36:29;6.35;;;2.70;;
64387;SDS011;50709;52.648;4.764;2022-11-04T09:38:55;6.30;;;3.17;;
64387;SDS011;50709;52.648;4.764;2022-11-04T09:44:17;4.13;;;2.50;;
64387;SDS011;50709;52.648;4.764;2022-11-04T09:46:47;5.25;;;2.70;;
64387;SDS011;50709;52.648;4.764;2022-11-04T09:49:15;5.30;;;2.75;;
64387;SDS011;50709;52.648;4.764;2022-11-04T09:51:41;3.88;;;2.65;;
64387;SDS011;50709;52.648;4.764;2022-11-04T09:57:04;4.50;;;2.38;;
64387;SDS011;50709;52.648;4.764;2022-11-04T09:59:34;5.45;;;2.38;;
64387;SDS011;50709;52.648;4.764;2022-11-04T10:02:02;3.88;;;2.28;;
64387;SDS011;50709;52.648;4.764;2022-11-04T10:05:01;3.97;;;2.08;;
64387;SDS011;50709;52.648;4.764;2022-11-04T10:13:32;3.08;;;1.60;;
64387;SDS011;50709;52.648;4.764;2022-11-04T10:26:46;2.47;;;1.48;;
64387;SDS011;50709;52.648;4.764;2022-11-04T10:32:09;2.42;;;1.50;;
64387;SDS011;50709;52.648;4.764;2022-11-04T10:37:19;5.65;;;2.28;;
64387;SDS011;50709;52.648;4.764;2022-11-04T10:39:45;4.05;;;1.58;;
64387;SDS011;50709;52.648;4.764;2022-11-04T10:42:16;4.95;;;1.63;;
64387;SDS011;50709;52.648;4.764;2022-11-04T10:44:46;2.83;;;1.55;;
64387;SDS011;50709;52.648;4.764;2022-11-04T10:50:14;2.60;;;1.50;;
64387;SDS011;50709;52.648;4.764;2022-11-04T10:52:47;2.95;;;1.80;;
64387;SDS011;50709;52.648;4.764;2022-11-04T10:57:46;2.47;;;1.20;;
64387;SDS011;50709;52.648;4.764;2022-11-04T11:00:30;3.60;;;1.30;;
64387;SDS011;50709;52.648;4.764;2022-11-04T11:02:57;4.55;;;1.90;;
64387;SDS011;50709;52.648;4.764;2022-11-04T11:05:23;4.03;;;1.30;;
64387;SDS011;50709;52.648;4.764;2022-11-04T11:07:50;3.13;;;1.30;;
64387;SDS011;50709;52.648;4.764;2022-11-04T11:13:00;3.08;;;1.30;;
64387;SDS011;50709;52.648;4.764;2022-11-04T11:15:32;2.53;;;1.33;;
64387;SDS011;50709;52.648;4.764;2022-11-04T11:20:41;2.03;;;1.27;;
64387;SDS011;50709;52.648;4.764;2022-11-04T11:26:01;4.53;;;1.70;;
64387;SDS011;50709;52.648;4.764;2022-11-04T11:28:28;2.88;;;1.35;;
64387;SDS011;50709;52.648;4.764;2022-11-04T11:31:01;3.80;;;1.70;;
64387;SDS011;50709;52.648;4.764;2022-11-04T11:33:35;2.17;;;1.40;;
64387;SDS011;50709;52.648;4.764;2022-11-04T11:36:23;6.32;;;1.80;;
64387;SDS011;50709;52.648;4.764;2022-11-04T11:41:25;6.18;;;2.25;;
64387;SDS011;50709;52.648;4.764;2022-11-04T11:44:17;4.70;;;2.13;;
64387;SDS011;50709;52.648;4.764;2022-11-04T11:46:49;4.53;;;2.17;;
64387;SDS011;50709;52.648;4.764;2022-11-04T11:49:22;13.73;;;6.63;;
64387;SDS011;50709;52.648;4.764;2022-11-04T11:51:52;6.28;;;3.22;;
64387;SDS011;50709;52.648;4.764;2022-11-04T11:54:28;5.65;;;2.83;;
64387;SDS011;50709;52.648;4.764;2022-11-04T11:57:02;8.57;;;2.60;;
64387;SDS011;50709;52.648;4.764;2022-11-04T11:59:46;4.70;;;2.20;;
64387;SDS011;50709;52.648;4.764;2022-11-04T12:05:09;4.75;;;2.15;;
64387;SDS011;50709;52.648;4.764;2022-11-04T12:07:45;5.05;;;2.38;;
64387;SDS011;50709;52.648;4.764;2022-11-04T12:10:44;5.38;;;2.75;;
64387;SDS011;50709;52.648;4.764;2022-11-04T12:26:34;4.03;;;2.20;;
64387;SDS011;50709;52.648;4.764;2022-11-04T12:29:21;4.05;;;2.00;;
64387;SDS011;50709;52.648;4.764;2022-11-04T12:40:26;5.65;;;3.05;;
64387;SDS011;50709;52.648;4.764;2022-11-04T12:53:29;8.45;;;2.80;;
64387;SDS011;50709;52.648;4.764;2022-11-04T12:56:05;5.25;;;2.60;;
64387;SDS011;50709;52.648;4.764;2022-11-04T12:58:42;7.05;;;2.88;;
64387;SDS011;50709;52.648;4.764;2022-11-04T13:01:30;5.10;;;2.50;;
64387;SDS011;50709;52.648;4.764;2022-11-04T13:04:20;6.63;;;3.53;;
64387;SDS011;50709;52.648;4.764;2022-11-04T13:06:56;7.90;;;2.88;;
64387;SDS011;50709;52.648;4.764;2022-11-04T13:12:10;5.70;;;2.25;;
64387;SDS011;50709;52.648;4.764;2022-11-04T13:17:29;5.70;;;2.90;;
64387;SDS011;50709;52.648;4.764;2022-11-04T13:20:04;7.22;;;3.47;;
64387;SDS011;50709;52.648;4.764;2022-11-04T13:22:41;6.55;;;2.95;;
64387;SDS011;50709;52.648;4.764;2022-11-04T13:25:15;4.75;;;2.50;;
64387;SDS011;50709;52.648;4.764;2022-11-04T13:27:47;5.78;;;2.75;;
64387;SDS011;50709;52.648;4.764;2022-11-04T13:35:37;6.85;;;2.83;;
64387;SDS011;50709;52.648;4.764;2022-11-04T13:38:14;6.30;;;2.85;;
64387;SDS011;50709;52.648;4.764;2022-11-04T13:40:55;6.93;;;2.47;;
64387;SDS011;50709;52.648;4.764;2022-11-04T13:43:26;4.55;;;2.17;;
64387;SDS011;50709;52.648;4.764;2022-11-04T13:48:35;4.57;;;2.80;;
64387;SDS011;50709;52.648;4.764;2022-11-04T13:51:08;4.57;;;2.55;;
64387;SDS011;50709;52.648;4.764;2022-11-04T13:53:43;6.38;;;2.50;;
64387;SDS011;50709;52.648;4.764;2022-11-04T13:59:16;5.40;;;2.40;;
64387;SDS011;50709;52.648;4.764;2022-11-04T14:04:36;3.42;;;2.17;;
64387;SDS011;50709;52.648;4.764;2022-11-04T14:07:09;5.05;;;2.33;;
64387;SDS011;50709;52.648;4.764;2022-11-04T14:14:34;4.72;;;2.33;;
64387;SDS011;50709;52.648;4.764;2022-11-04T14:17:08;6.13;;;2.38;;
64387;SDS011;50709;52.648;4.764;2022-11-04T14:25:23;5.07;;;2.28;;
64387;SDS011;50709;52.648;4.764;2022-11-04T14:28:14;5.68;;;2.45;;
64387;SDS011;50709;52.648;4.764;2022-11-04T14:30:52;4.10;;;2.20;;
64387;SDS011;50709;52.648;4.764;2022-11-04T14:33:35;6.35;;;2.58;;
64387;SDS011;50709;52.648;4.764;2022-11-04T14:36:22;5.05;;;2.33;;
64387;SDS011;50709;52.648;4.764;2022-11-04T14:38:51;4.43;;;2.50;;
64387;SDS011;50709;52.648;4.764;2022-11-04T14:43:53;5.15;;;2.20;;
64387;SDS011;50709;52.648;4.764;2022-11-04T14:46:22;5.38;;;2.40;;
64387;SDS011;50709;52.648;4.764;2022-11-04T14:48:52;5.78;;;2.83;;
64387;SDS011;50709;52.648;4.764;2022-11-04T14:51:25;5.88;;;2.50;;
64387;SDS011;50709;52.648;4.764;2022-11-04T14:54:01;5.93;;;2.42;;
64387;SDS011;50709;52.648;4.764;2022-11-04T14:56:29;3.88;;;2.17;;
64387;SDS011;50709;52.648;4.764;2022-11-04T15:01:25;4.63;;;2.53;;
64387;SDS011;50709;52.648;4.764;2022-11-04T15:03:53;4.15;;;2.45;;
64387;SDS011;50709;52.648;4.764;2022-11-04T15:06:24;8.52;;;2.28;;
64387;SDS011;50709;52.648;4.764;2022-11-04T15:08:52;7.47;;;2.22;;
64387;SDS011;50709;52.648;4.764;2022-11-04T15:11:22;8.07;;;2.67;;
64387;SDS011;50709;52.648;4.764;2022-11-04T15:14:12;4.75;;;2.65;;
64387;SDS011;50709;52.648;4.764;2022-11-04T15:16:41;5.93;;;2.00;;
64387;SDS011;50709;52.648;4.764;2022-11-04T15:19:09;5.60;;;2.25;;
64387;SDS011;50709;52.648;4.764;2022-11-04T15:21:38;3.47;;;2.10;;
64387;SDS011;50709;52.648;4.764;2022-11-04T15:24:05;4.78;;;2.30;;
64387;SDS011;50709;52.648;4.764;2022-11-04T15:26:39;6.97;;;2.28;;
64387;SDS011;50709;52.648;4.764;2022-11-04T15:29:07;5.03;;;1.95;;
64387;SDS011;50709;52.648;4.764;2022-11-04T15:31:36;5.07;;;1.90;;
64387;SDS011;50709;52.648;4.764;2022-11-04T15:34:03;4.35;;;2.28;;
64387;SDS011;50709;52.648;4.764;2022-11-04T15:36:34;4.70;;;1.90;;
64387;SDS011;50709;52.648;4.764;2022-11-04T15:41:45;4.63;;;2.08;;
64387;SDS011;50709;52.648;4.764;2022-11-04T15:44:33;3.30;;;1.95;;
64387;SDS011;50709;52.648;4.764;2022-11-04T15:49:28;3.00;;;1.90;;
64387;SDS011;50709;52.648;4.764;2022-11-04T15:51:57;5.43;;;1.95;;
64387;SDS011;50709;52.648;4.764;2022-11-04T15:54:26;5.38;;;1.75;;
64387;SDS011;50709;52.648;4.764;2022-11-04T15:56:56;3.65;;;2.10;;
64387;SDS011;50709;52.648;4.764;2022-11-04T15:59:26;5.50;;;2.13;;
64387;SDS011;50709;52.648;4.764;2022-11-04T16:01:55;3.40;;;2.05;;
64387;SDS011;50709;52.648;4.764;2022-11-04T16:04:23;3.35;;;1.75;;
64387;SDS011;50709;52.648;4.764;2022-11-04T16:09:44;3.55;;;1.60;;
64387;SDS011;50709;52.648;4.764;2022-11-04T16:12:15;3.25;;;2.00;;
64387;SDS011;50709;52.648;4.764;2022-11-04T16:14:51;4.25;;;1.80;;
64387;SDS011;50709;52.648;4.764;2022-11-04T16:17:18;3.10;;;1.98;;
64387;SDS011;50709;52.648;4.764;2022-11-04T16:19:46;4.82;;;2.08;;
64387;SDS011;50709;52.648;4.764;2022-11-04T16:22:16;5.75;;;2.10;;
64387;SDS011;50709;52.648;4.764;2022-11-04T16:24:48;4.78;;;2.60;;
64387;SDS011;50709;52.648;4.764;2022-11-04T16:27:17;4.28;;;2.00;;
64387;SDS011;50709;52.648;4.764;2022-11-04T16:29:49;3.55;;;1.90;;
64387;SDS011;50709;52.648;4.764;2022-11-04T16:34:50;5.55;;;1.90;;
64387;SDS011;50709;52.648;4.764;2022-11-04T16:37:18;4.57;;;2.10;;
64387;SDS011;50709;52.648;4.764;2022-11-04T16:39:54;4.03;;;2.10;;
64387;SDS011;50709;52.648;4.764;2022-11-04T16:42:20;3.08;;;1.67;;
64387;SDS011;50709;52.648;4.764;2022-11-04T16:44:46;4.28;;;2.15;;
64387;SDS011;50709;52.648;4.764;2022-11-04T16:47:13;4.47;;;2.15;;
64387;SDS011;50709;52.648;4.764;2022-11-04T16:49:38;6.72;;;2.85;;
64387;SDS011;50709;52.648;4.764;2022-11-04T16:52:05;4.20;;;2.10;;
64387;SDS011;50709;52.648;4.764;2022-11-04T16:54:36;5.47;;;2.50;;
64387;SDS011;50709;52.648;4.764;2022-11-04T16:57:02;4.32;;;2.10;;
64387;SDS011;50709;52.648;4.764;2022-11-04T16:59:30;5.22;;;2.80;;
64387;SDS011;50709;52.648;4.764;2022-11-04T17:01:56;5.28;;;2.85;;
64387;SDS011;50709;52.648;4.764;2022-11-04T17:04:21;4.72;;;2.67;;
64387;SDS011;50709;52.648;4.764;2022-11-04T17:06:47;5.38;;;2.63;;
64387;SDS011;50709;52.648;4.764;2022-11-04T17:09:16;6.22;;;2.55;;
64387;SDS011;50709;52.648;4.764;2022-11-04T17:11:44;4.32;;;2.45;;
64387;SDS011;50709;52.648;4.764;2022-11-04T17:14:10;7.78;;;3.03;;
64387;SDS011;50709;52.648;4.764;2022-11-04T17:16:35;10.15;;;5.00;;
64387;SDS011;50709;52.648;4.764;2022-11-04T17:19:00;10.63;;;4.63;;
64387;SDS011;50709;52.648;4.764;2022-11-04T17:21:46;10.70;;;4.47;;
64387;SDS011;50709;52.648;4.764;2022-11-04T17:24:11;9.07;;;4.13;;
64387;SDS011;50709;52.648;4.764;2022-11-04T17:26:37;7.47;;;3.60;;
64387;SDS011;50709;52.648;4.764;2022-11-04T17:29:03;7.07;;;3.60;;
64387;SDS011;50709;52.648;4.764;2022-11-04T17:31:28;5.85;;;3.38;;
64387;SDS011;50709;52.648;4.764;2022-11-04T17:33:54;7.25;;;3.30;;
64387;SDS011;50709;52.648;4.764;2022-11-04T17:36:19;8.15;;;3.42;;
64387;SDS011;50709;52.648;4.764;2022-11-04T17:38:46;6.65;;;3.33;;
64387;SDS011;50709;52.648;4.764;2022-11-04T17:41:11;6.07;;;2.67;;
64387;SDS011;50709;52.648;4.764;2022-11-04T17:43:55;4.25;;;2.88;;
64387;SDS011;50709;52.648;4.764;2022-11-04T17:46:29;7.00;;;3.30;;
64387;SDS011;50709;52.648;4.764;2022-11-04T17:49:03;6.30;;;2.90;;